Terminal Aerodrome Forecast
Issued by NWS

Home | Current Version | Previous Version | Text Only | Print | Product List | Glossary On
Versions: 1 2 3 4 5 6 7 8 9 10 11 12 13 14 15
000
FTUS46 KPDT 020520
TAFBDN
TAF
KBDN 020520Z 0206/0306 19005KT P6SM OVC070
     FM021200 22006KT P6SM BKN050 BKN090
     FM022000 30011G18KT P6SM VCSH BKN050 BKN090
     FM030400 VRB04KT P6SM SCT050 BKN100=

USA.gov is the U.S. government's official web portal to all federal, state and local government web resources and services.